sensor_id;sensor_type;location;lat;lon;timestamp;temperature;humidity
38020;DHT22;23829;51.350;17.286;2023-03-30T00:00:54;22.00;33.50
38020;DHT22;23829;51.350;17.286;2023-03-30T00:03:21;21.70;33.90
38020;DHT22;23829;51.350;17.286;2023-03-30T00:05:49;21.60;34.20
38020;DHT22;23829;51.350;17.286;2023-03-30T00:08:23;21.30;34.80
38020;DHT22;23829;51.350;17.286;2023-03-30T00:10:59;21.30;35.00
38020;DHT22;23829;51.350;17.286;2023-03-30T00:13:27;21.60;34.50
38020;DHT22;23829;51.350;17.286;2023-03-30T00:15:54;21.90;33.80
38020;DHT22;23829;51.350;17.286;2023-03-30T00:18:21;21.90;33.70
38020;DHT22;23829;51.350;17.286;2023-03-30T00:20:48;22.30;33.00
38020;DHT22;23829;51.350;17.286;2023-03-30T00:23:16;21.90;33.60
38020;DHT22;23829;51.350;17.286;2023-03-30T00:25:42;21.80;33.70
38020;DHT22;23829;51.350;17.286;2023-03-30T00:28:09;21.50;34.50
38020;DHT22;23829;51.350;17.286;2023-03-30T00:30:36;21.90;34.00
38020;DHT22;23829;51.350;17.286;2023-03-30T00:33:02;21.50;34.40
38020;DHT22;23829;51.350;17.286;2023-03-30T00:35:30;21.40;34.60
38020;DHT22;23829;51.350;17.286;2023-03-30T00:37:58;21.40;34.80
38020;DHT22;23829;51.350;17.286;2023-03-30T00:40:26;21.20;35.20
38020;DHT22;23829;51.350;17.286;2023-03-30T00:43:01;21.50;35.00
38020;DHT22;23829;51.350;17.286;2023-03-30T00:45:32;21.50;34.90
38020;DHT22;23829;51.350;17.286;2023-03-30T00:50:45;21.40;34.90
38020;DHT22;23829;51.350;17.286;2023-03-30T00:53:19;21.20;35.40
38020;DHT22;23829;51.350;17.286;2023-03-30T00:55:48;21.10;35.90
38020;DHT22;23829;51.350;17.286;2023-03-30T00:58:17;21.10;35.80
38020;DHT22;23829;51.350;17.286;2023-03-30T01:00:45;21.00;36.00
38020;DHT22;23829;51.350;17.286;2023-03-30T01:03:20;20.80;36.40
38020;DHT22;23829;51.350;17.286;2023-03-30T01:05:48;20.80;36.70
38020;DHT22;23829;51.350;17.286;2023-03-30T01:08:16;20.70;37.20
38020;DHT22;23829;51.350;17.286;2023-03-30T01:10:44;20.60;37.60
38020;DHT22;23829;51.350;17.286;2023-03-30T01:13:11;20.70;37.30
38020;DHT22;23829;51.350;17.286;2023-03-30T01:18:59;20.40;38.20
38020;DHT22;23829;51.350;17.286;2023-03-30T01:41:40;20.80;38.30
38020;DHT22;23829;51.350;17.286;2023-03-30T01:49:44;20.80;37.70
38020;DHT22;23829;51.350;17.286;2023-03-30T01:52:28;20.20;38.60
38020;DHT22;23829;51.350;17.286;2023-03-30T01:55:13;20.60;38.30
38020;DHT22;23829;51.350;17.286;2023-03-30T01:57:56;20.60;38.10
38020;DHT22;23829;51.350;17.286;2023-03-30T02:00:25;20.50;38.40
38020;DHT22;23829;51.350;17.286;2023-03-30T02:05:26;20.20;39.00
38020;DHT22;23829;51.350;17.286;2023-03-30T02:08:00;20.00;39.80
38020;DHT22;23829;51.350;17.286;2023-03-30T02:10:30;20.10;40.00
38020;DHT22;23829;51.350;17.286;2023-03-30T02:12:57;20.20;39.50
38020;DHT22;23829;51.350;17.286;2023-03-30T02:15:31;20.50;39.00
38020;DHT22;23829;51.350;17.286;2023-03-30T02:17:58;20.80;38.70
38020;DHT22;23829;51.350;17.286;2023-03-30T02:20:25;21.30;37.40
38020;DHT22;23829;51.350;17.286;2023-03-30T02:22:54;20.80;38.10
38020;DHT22;23829;51.350;17.286;2023-03-30T02:25:22;21.10;37.70
38020;DHT22;23829;51.350;17.286;2023-03-30T02:27:49;20.90;37.70
38020;DHT22;23829;51.350;17.286;2023-03-30T02:30:16;20.40;38.50
38020;DHT22;23829;51.350;17.286;2023-03-30T02:32:56;20.20;39.10
38020;DHT22;23829;51.350;17.286;2023-03-30T02:38:38;20.20;38.90
38020;DHT22;23829;51.350;17.286;2023-03-30T02:41:09;20.20;38.80
38020;DHT22;23829;51.350;17.286;2023-03-30T02:43:45;20.20;39.10
38020;DHT22;23829;51.350;17.286;2023-03-30T02:55:03;19.90;39.50
38020;DHT22;23829;51.350;17.286;2023-03-30T03:01:43;19.80;39.80
38020;DHT22;23829;51.350;17.286;2023-03-30T03:04:14;19.90;39.90
38020;DHT22;23829;51.350;17.286;2023-03-30T03:07:21;20.10;39.50
38020;DHT22;23829;51.350;17.286;2023-03-30T03:09:48;20.40;39.20
38020;DHT22;23829;51.350;17.286;2023-03-30T03:12:15;20.50;38.90
38020;DHT22;23829;51.350;17.286;2023-03-30T03:14:41;20.70;38.90
38020;DHT22;23829;51.350;17.286;2023-03-30T03:17:08;20.70;38.80
38020;DHT22;23829;51.350;17.286;2023-03-30T03:19:41;20.90;38.50
38020;DHT22;23829;51.350;17.286;2023-03-30T03:22:08;21.00;38.50
38020;DHT22;23829;51.350;17.286;2023-03-30T03:24:36;21.40;37.90
38020;DHT22;23829;51.350;17.286;2023-03-30T03:27:32;21.00;38.30
38020;DHT22;23829;51.350;17.286;2023-03-30T03:30:10;20.80;39.00
38020;DHT22;23829;51.350;17.286;2023-03-30T03:32:43;20.80;39.10
38020;DHT22;23829;51.350;17.286;2023-03-30T03:35:10;20.80;39.30
38020;DHT22;23829;51.350;17.286;2023-03-30T03:37:37;20.90;39.30
38020;DHT22;23829;51.350;17.286;2023-03-30T03:40:05;20.60;39.90
38020;DHT22;23829;51.350;17.286;2023-03-30T03:42:32;20.50;40.10
38020;DHT22;23829;51.350;17.286;2023-03-30T03:45:09;20.40;40.30
38020;DHT22;23829;51.350;17.286;2023-03-30T03:47:46;20.60;40.10
38020;DHT22;23829;51.350;17.286;2023-03-30T03:50:16;20.40;40.50
38020;DHT22;23829;51.350;17.286;2023-03-30T03:52:42;20.20;40.80
38020;DHT22;23829;51.350;17.286;2023-03-30T03:55:09;20.10;40.90
38020;DHT22;23829;51.350;17.286;2023-03-30T03:57:40;20.10;40.90
38020;DHT22;23829;51.350;17.286;2023-03-30T04:00:07;19.90;41.60
38020;DHT22;23829;51.350;17.286;2023-03-30T04:02:43;20.00;41.20
38020;DHT22;23829;51.350;17.286;2023-03-30T04:05:10;20.00;41.50
38020;DHT22;23829;51.350;17.286;2023-03-30T04:07:37;20.20;41.20
38020;DHT22;23829;51.350;17.286;2023-03-30T04:10:05;20.10;41.20
38020;DHT22;23829;51.350;17.286;2023-03-30T04:12:55;19.90;41.70
38020;DHT22;23829;51.350;17.286;2023-03-30T04:15:47;19.80;41.90
38020;DHT22;23829;51.350;17.286;2023-03-30T04:18:20;19.80;42.20
38020;DHT22;23829;51.350;17.286;2023-03-30T04:21:07;20.00;41.70
38020;DHT22;23829;51.350;17.286;2023-03-30T04:24:04;20.00;41.80
38020;DHT22;23829;51.350;17.286;2023-03-30T04:26:49;19.90;42.20
38020;DHT22;23829;51.350;17.286;2023-03-30T04:29:33;19.90;42.10
38020;DHT22;23829;51.350;17.286;2023-03-30T04:32:23;20.00;42.00
38020;DHT22;23829;51.350;17.286;2023-03-30T04:35:07;20.30;41.60
38020;DHT22;23829;51.350;17.286;2023-03-30T04:37:53;20.50;41.30
38020;DHT22;23829;51.350;17.286;2023-03-30T04:40:52;20.30;41.50
38020;DHT22;23829;51.350;17.286;2023-03-30T04:43:31;20.20;42.00
38020;DHT22;23829;51.350;17.286;2023-03-30T04:46:07;20.10;42.10
38020;DHT22;23829;51.350;17.286;2023-03-30T04:49:04;20.00;42.70
38020;DHT22;23829;51.350;17.286;2023-03-30T04:51:53;20.00;42.70
38020;DHT22;23829;51.350;17.286;2023-03-30T04:54:49;20.10;42.70
38020;DHT22;23829;51.350;17.286;2023-03-30T04:57:15;19.80;43.40
38020;DHT22;23829;51.350;17.286;2023-03-30T04:59:51;19.70;43.80
38020;DHT22;23829;51.350;17.286;2023-03-30T05:02:36;19.80;43.60
38020;DHT22;23829;51.350;17.286;2023-03-30T05:05:18;19.70;43.90
38020;DHT22;23829;51.350;17.286;2023-03-30T05:08:07;19.60;44.40
38020;DHT22;23829;51.350;17.286;2023-03-30T05:10:37;19.70;44.20
38020;DHT22;23829;51.350;17.286;2023-03-30T05:13:10;19.80;44.10
38020;DHT22;23829;51.350;17.286;2023-03-30T05:16:00;19.70;44.20
38020;DHT22;23829;51.350;17.286;2023-03-30T05:18:50;19.80;44.30
38020;DHT22;23829;51.350;17.286;2023-03-30T05:21:40;19.70;44.50
38020;DHT22;23829;51.350;17.286;2023-03-30T05:24:29;19.60;44.80
38020;DHT22;23829;51.350;17.286;2023-03-30T05:27:04;19.70;44.70
38020;DHT22;23829;51.350;17.286;2023-03-30T05:29:52;19.80;44.50
38020;DHT22;23829;51.350;17.286;2023-03-30T05:32:37;19.80;44.50
38020;DHT22;23829;51.350;17.286;2023-03-30T05:35:36;19.90;44.50
38020;DHT22;23829;51.350;17.286;2023-03-30T05:38:21;19.80;44.70
38020;DHT22;23829;51.350;17.286;2023-03-30T05:41:25;19.80;44.70
38020;DHT22;23829;51.350;17.286;2023-03-30T05:44:08;20.30;43.90
38020;DHT22;23829;51.350;17.286;2023-03-30T05:46:58;20.30;43.80
38020;DHT22;23829;51.350;17.286;2023-03-30T05:49:50;20.80;43.00
38020;DHT22;23829;51.350;17.286;2023-03-30T05:52:23;21.00;42.70
38020;DHT22;23829;51.350;17.286;2023-03-30T05:54:53;20.80;42.90
38020;DHT22;23829;51.350;17.286;2023-03-30T05:57:40;20.80;43.00
38020;DHT22;23829;51.350;17.286;2023-03-30T06:00:14;20.50;43.50
38020;DHT22;23829;51.350;17.286;2023-03-30T06:02:58;20.70;43.40
38020;DHT22;23829;51.350;17.286;2023-03-30T06:05:26;20.50;43.90
38020;DHT22;23829;51.350;17.286;2023-03-30T06:07:54;20.70;43.50
38020;DHT22;23829;51.350;17.286;2023-03-30T06:10:21;20.50;43.90
38020;DHT22;23829;51.350;17.286;2023-03-30T06:12:48;20.60;43.80
38020;DHT22;23829;51.350;17.286;2023-03-30T06:15:29;20.50;44.00
38020;DHT22;23829;51.350;17.286;2023-03-30T06:18:08;20.50;44.20
38020;DHT22;23829;51.350;17.286;2023-03-30T06:20:38;20.20;45.00
38020;DHT22;23829;51.350;17.286;2023-03-30T06:23:04;20.10;45.70
38020;DHT22;23829;51.350;17.286;2023-03-30T06:25:31;20.20;45.40
38020;DHT22;23829;51.350;17.286;2023-03-30T06:27:58;20.50;45.10
38020;DHT22;23829;51.350;17.286;2023-03-30T06:30:25;21.00;44.40
38020;DHT22;23829;51.350;17.286;2023-03-30T06:32:55;20.80;44.50
38020;DHT22;23829;51.350;17.286;2023-03-30T06:35:34;21.00;44.10
38020;DHT22;23829;51.350;17.286;2023-03-30T06:38:01;20.80;44.10
38020;DHT22;23829;51.350;17.286;2023-03-30T06:40:28;21.20;43.50
38020;DHT22;23829;51.350;17.286;2023-03-30T06:42:55;21.20;43.30
38020;DHT22;23829;51.350;17.286;2023-03-30T06:45:38;21.40;42.80
38020;DHT22;23829;51.350;17.286;2023-03-30T06:48:05;21.50;42.60
38020;DHT22;23829;51.350;17.286;2023-03-30T06:50:35;21.30;42.70
38020;DHT22;23829;51.350;17.286;2023-03-30T06:53:04;21.00;43.20
38020;DHT22;23829;51.350;17.286;2023-03-30T06:55:40;21.20;42.90
38020;DHT22;23829;51.350;17.286;2023-03-30T06:58:10;21.10;43.20
38020;DHT22;23829;51.350;17.286;2023-03-30T07:00:37;21.10;43.30
38020;DHT22;23829;51.350;17.286;2023-03-30T07:03:33;21.20;43.10
38020;DHT22;23829;51.350;17.286;2023-03-30T07:06:14;21.60;42.40
38020;DHT22;23829;51.350;17.286;2023-03-30T07:08:41;21.40;42.60
38020;DHT22;23829;51.350;17.286;2023-03-30T07:11:10;21.70;42.20
38020;DHT22;23829;51.350;17.286;2023-03-30T07:13:39;21.80;41.90
38020;DHT22;23829;51.350;17.286;2023-03-30T07:16:06;21.90;41.80
38020;DHT22;23829;51.350;17.286;2023-03-30T07:18:34;21.90;41.70
38020;DHT22;23829;51.350;17.286;2023-03-30T07:21:01;21.70;42.00
38020;DHT22;23829;51.350;17.286;2023-03-30T07:23:37;21.70;42.40
38020;DHT22;23829;51.350;17.286;2023-03-30T07:26:04;21.70;42.30
38020;DHT22;23829;51.350;17.286;2023-03-30T07:28:40;22.00;42.10
38020;DHT22;23829;51.350;17.286;2023-03-30T07:31:11;22.20;41.30
38020;DHT22;23829;51.350;17.286;2023-03-30T07:33:40;22.30;41.50
38020;DHT22;23829;51.350;17.286;2023-03-30T07:36:10;22.20;41.80
38020;DHT22;23829;51.350;17.286;2023-03-30T07:38:37;22.20;41.70
38020;DHT22;23829;51.350;17.286;2023-03-30T07:41:09;22.20;41.60
38020;DHT22;23829;51.350;17.286;2023-03-30T07:43:36;22.00;41.90
38020;DHT22;23829;51.350;17.286;2023-03-30T07:46:07;21.90;42.20
38020;DHT22;23829;51.350;17.286;2023-03-30T07:48:40;21.80;42.50
38020;DHT22;23829;51.350;17.286;2023-03-30T07:51:10;22.30;42.10
38020;DHT22;23829;51.350;17.286;2023-03-30T07:53:47;22.40;42.10
38020;DHT22;23829;51.350;17.286;2023-03-30T07:56:21;22.60;41.90
38020;DHT22;23829;51.350;17.286;2023-03-30T07:58:50;23.10;40.90
38020;DHT22;23829;51.350;17.286;2023-03-30T08:01:19;23.40;40.20
38020;DHT22;23829;51.350;17.286;2023-03-30T08:04:12;23.40;39.90
38020;DHT22;23829;51.350;17.286;2023-03-30T08:06:40;23.20;40.30
38020;DHT22;23829;51.350;17.286;2023-03-30T08:09:07;23.40;40.30
38020;DHT22;23829;51.350;17.286;2023-03-30T08:11:34;24.20;38.60
38020;DHT22;23829;51.350;17.286;2023-03-30T08:14:04;23.80;39.10
38020;DHT22;23829;51.350;17.286;2023-03-30T08:16:31;23.20;39.70
38020;DHT22;23829;51.350;17.286;2023-03-30T08:18:57;23.10;40.70
38020;DHT22;23829;51.350;17.286;2023-03-30T08:21:24;23.10;41.10
38020;DHT22;23829;51.350;17.286;2023-03-30T08:23:52;22.90;41.60
38020;DHT22;23829;51.350;17.286;2023-03-30T08:26:21;22.70;41.60
38020;DHT22;23829;51.350;17.286;2023-03-30T08:28:47;23.00;41.40
38020;DHT22;23829;51.350;17.286;2023-03-30T08:31:14;23.80;40.00
38020;DHT22;23829;51.350;17.286;2023-03-30T08:33:47;24.40;38.90
38020;DHT22;23829;51.350;17.286;2023-03-30T08:36:14;24.50;38.50
38020;DHT22;23829;51.350;17.286;2023-03-30T08:38:41;24.30;38.50
38020;DHT22;23829;51.350;17.286;2023-03-30T08:46:53;24.40;39.20
38020;DHT22;23829;51.350;17.286;2023-03-30T08:49:20;24.60;38.80
38020;DHT22;23829;51.350;17.286;2023-03-30T08:51:49;24.20;39.20
38020;DHT22;23829;51.350;17.286;2023-03-30T08:54:19;24.30;39.10
38020;DHT22;23829;51.350;17.286;2023-03-30T08:57:09;23.90;39.50
38020;DHT22;23829;51.350;17.286;2023-03-30T08:59:55;24.20;39.70
38020;DHT22;23829;51.350;17.286;2023-03-30T09:02:32;24.40;39.10
38020;DHT22;23829;51.350;17.286;2023-03-30T09:08:19;24.80;38.30
38020;DHT22;23829;51.350;17.286;2023-03-30T09:10:58;24.90;38.20
38020;DHT22;23829;51.350;17.286;2023-03-30T09:13:31;25.00;38.40
38020;DHT22;23829;51.350;17.286;2023-03-30T09:16:19;24.90;38.70
38020;DHT22;23829;51.350;17.286;2023-03-30T09:18:50;25.00;38.70
38020;DHT22;23829;51.350;17.286;2023-03-30T09:21:20;25.20;38.10
38020;DHT22;23829;51.350;17.286;2023-03-30T09:23:48;25.40;37.80
38020;DHT22;23829;51.350;17.286;2023-03-30T09:26:45;25.30;38.10
38020;DHT22;23829;51.350;17.286;2023-03-30T09:29:19;25.20;38.40
38020;DHT22;23829;51.350;17.286;2023-03-30T09:32:45;25.30;38.70
38020;DHT22;23829;51.350;17.286;2023-03-30T09:35:17;25.20;38.10
38020;DHT22;23829;51.350;17.286;2023-03-30T09:37:47;25.60;38.20
38020;DHT22;23829;51.350;17.286;2023-03-30T09:40:57;26.20;37.10
38020;DHT22;23829;51.350;17.286;2023-03-30T09:43:42;26.30;36.90
38020;DHT22;23829;51.350;17.286;2023-03-30T09:46:13;26.10;37.30
38020;DHT22;23829;51.350;17.286;2023-03-30T09:48:45;26.20;37.60
38020;DHT22;23829;51.350;17.286;2023-03-30T09:51:21;26.70;37.10
38020;DHT22;23829;51.350;17.286;2023-03-30T09:53:50;26.60;36.80
38020;DHT22;23829;51.350;17.286;2023-03-30T09:56:39;26.00;37.70
38020;DHT22;23829;51.350;17.286;2023-03-30T09:59:28;26.20;37.80
38020;DHT22;23829;51.350;17.286;2023-03-30T10:09:52;26.80;36.60
38020;DHT22;23829;51.350;17.286;2023-03-30T10:12:19;26.90;36.90
38020;DHT22;23829;51.350;17.286;2023-03-30T10:14:56;27.20;36.90
38020;DHT22;23829;51.350;17.286;2023-03-30T10:17:24;26.90;36.60
38020;DHT22;23829;51.350;17.286;2023-03-30T11:25:51;25.50;41.70
38020;DHT22;23829;51.350;17.286;2023-03-30T11:28:30;26.10;40.60
38020;DHT22;23829;51.350;17.286;2023-03-30T11:31:14;27.00;39.20
38020;DHT22;23829;51.350;17.286;2023-03-30T11:33:52;27.50;37.70
38020;DHT22;23829;51.350;17.286;2023-03-30T11:36:56;28.00;37.40
38020;DHT22;23829;51.350;17.286;2023-03-30T11:39:26;28.10;36.90
38020;DHT22;23829;51.350;17.286;2023-03-30T11:42:58;28.80;35.70
38020;DHT22;23829;51.350;17.286;2023-03-30T11:44:54;28.80;34.40
38020;DHT22;23829;51.350;17.286;2023-03-30T11:47:36;28.90;34.40
38020;DHT22;23829;51.350;17.286;2023-03-30T11:56:09;29.10;33.30
38020;DHT22;23829;51.350;17.286;2023-03-30T11:58:46;28.70;33.60
38020;DHT22;23829;51.350;17.286;2023-03-30T12:04:29;29.10;33.90
38020;DHT22;23829;51.350;17.286;2023-03-30T12:07:01;29.10;33.10
38020;DHT22;23829;51.350;17.286;2023-03-30T12:23:58;29.40;32.00
38020;DHT22;23829;51.350;17.286;2023-03-30T12:26:31;29.60;32.50
38020;DHT22;23829;51.350;17.286;2023-03-30T12:29:11;29.60;32.10
38020;DHT22;23829;51.350;17.286;2023-03-30T12:34:22;30.10;31.30
38020;DHT22;23829;51.350;17.286;2023-03-30T12:36:53;30.10;31.30
38020;DHT22;23829;51.350;17.286;2023-03-30T12:39:30;29.90;31.70
38020;DHT22;23829;51.350;17.286;2023-03-30T12:42:07;29.60;31.90
38020;DHT22;23829;51.350;17.286;2023-03-30T13:00:53;29.30;32.40
38020;DHT22;23829;51.350;17.286;2023-03-30T13:03:50;29.20;32.60
38020;DHT22;23829;51.350;17.286;2023-03-30T13:06:25;29.20;32.70
38020;DHT22;23829;51.350;17.286;2023-03-30T13:08:54;29.20;32.60
38020;DHT22;23829;51.350;17.286;2023-03-30T13:11:22;29.40;32.70
38020;DHT22;23829;51.350;17.286;2023-03-30T13:14:03;29.60;32.40
38020;DHT22;23829;51.350;17.286;2023-03-30T13:16:46;29.60;32.50
38020;DHT22;23829;51.350;17.286;2023-03-30T13:24:42;29.20;33.10
38020;DHT22;23829;51.350;17.286;2023-03-30T13:27:30;29.30;33.20
38020;DHT22;23829;51.350;17.286;2023-03-30T13:35:08;29.80;32.80
38020;DHT22;23829;51.350;17.286;2023-03-30T13:45:59;30.40;32.20
38020;DHT22;23829;51.350;17.286;2023-03-30T13:51:15;29.90;32.70
38020;DHT22;23829;51.350;17.286;2023-03-30T13:53:52;29.70;33.00
38020;DHT22;23829;51.350;17.286;2023-03-30T13:56:20;29.70;33.30
38020;DHT22;23829;51.350;17.286;2023-03-30T13:59:02;29.70;33.50
38020;DHT22;23829;51.350;17.286;2023-03-30T14:01:29;29.60;33.30
38020;DHT22;23829;51.350;17.286;2023-03-30T14:03:57;29.60;33.70
38020;DHT22;23829;51.350;17.286;2023-03-30T14:06:28;29.60;33.50
38020;DHT22;23829;51.350;17.286;2023-03-30T14:09:21;29.60;33.20
38020;DHT22;23829;51.350;17.286;2023-03-30T14:11:56;29.40;33.60
38020;DHT22;23829;51.350;17.286;2023-03-30T14:17:01;29.70;33.30
38020;DHT22;23829;51.350;17.286;2023-03-30T14:19:32;29.60;33.10
38020;DHT22;23829;51.350;17.286;2023-03-30T14:22:08;29.60;33.30
38020;DHT22;23829;51.350;17.286;2023-03-30T14:24:36;29.70;33.80
38020;DHT22;23829;51.350;17.286;2023-03-30T14:27:12;29.70;33.50
38020;DHT22;23829;51.350;17.286;2023-03-30T14:29:49;29.70;33.50
38020;DHT22;23829;51.350;17.286;2023-03-30T14:32:18;29.50;33.90
38020;DHT22;23829;51.350;17.286;2023-03-30T14:34:50;29.60;33.90
38020;DHT22;23829;51.350;17.286;2023-03-30T14:37:18;29.70;33.70
38020;DHT22;23829;51.350;17.286;2023-03-30T14:39:50;29.70;33.70
38020;DHT22;23829;51.350;17.286;2023-03-30T14:42:20;29.50;34.10
38020;DHT22;23829;51.350;17.286;2023-03-30T14:44:48;29.30;34.50
38020;DHT22;23829;51.350;17.286;2023-03-30T14:47:19;28.90;34.70
38020;DHT22;23829;51.350;17.286;2023-03-30T14:49:46;28.90;35.20
38020;DHT22;23829;51.350;17.286;2023-03-30T14:52:19;29.30;34.90
38020;DHT22;23829;51.350;17.286;2023-03-30T14:54:47;29.00;34.50
38020;DHT22;23829;51.350;17.286;2023-03-30T14:57:20;29.20;34.70
38020;DHT22;23829;51.350;17.286;2023-03-30T14:59:50;29.30;34.50
38020;DHT22;23829;51.350;17.286;2023-03-30T15:02:20;29.40;34.50
38020;DHT22;23829;51.350;17.286;2023-03-30T15:04:48;29.50;34.30
38020;DHT22;23829;51.350;17.286;2023-03-30T15:07:17;29.10;34.90
38020;DHT22;23829;51.350;17.286;2023-03-30T15:09:46;29.10;34.80
38020;DHT22;23829;51.350;17.286;2023-03-30T15:12:38;28.90;35.20
38020;DHT22;23829;51.350;17.286;2023-03-30T15:15:07;28.80;35.30
38020;DHT22;23829;51.350;17.286;2023-03-30T15:17:35;28.50;35.70
38020;DHT22;23829;51.350;17.286;2023-03-30T15:20:04;28.60;35.80
38020;DHT22;23829;51.350;17.286;2023-03-30T15:22:35;28.30;36.10
38020;DHT22;23829;51.350;17.286;2023-03-30T15:25:10;28.20;36.40
38020;DHT22;23829;51.350;17.286;2023-03-30T15:27:38;28.10;36.50
38020;DHT22;23829;51.350;17.286;2023-03-30T15:30:05;28.60;35.90
38020;DHT22;23829;51.350;17.286;2023-03-30T15:32:42;28.50;35.90
38020;DHT22;23829;51.350;17.286;2023-03-30T15:37:59;28.20;36.20
38020;DHT22;23829;51.350;17.286;2023-03-30T15:40:35;27.90;36.70
38020;DHT22;23829;51.350;17.286;2023-03-30T15:43:22;27.80;36.70
38020;DHT22;23829;51.350;17.286;2023-03-30T15:46:06;27.90;36.50
38020;DHT22;23829;51.350;17.286;2023-03-30T15:48:48;27.90;36.30
38020;DHT22;23829;51.350;17.286;2023-03-30T15:51:29;27.80;36.40
38020;DHT22;23829;51.350;17.286;2023-03-30T16:02:19;28.10;35.50
38020;DHT22;23829;51.350;17.286;2023-03-30T16:04:47;28.30;35.10
38020;DHT22;23829;51.350;17.286;2023-03-30T16:07:19;28.50;35.20
38020;DHT22;23829;51.350;17.286;2023-03-30T16:09:47;28.20;35.30
38020;DHT22;23829;51.350;17.286;2023-03-30T16:12:27;28.10;35.40
38020;DHT22;23829;51.350;17.286;2023-03-30T16:14:55;27.70;35.80
38020;DHT22;23829;51.350;17.286;2023-03-30T16:17:21;27.60;36.30
38020;DHT22;23829;51.350;17.286;2023-03-30T16:19:48;27.70;36.10
38020;DHT22;23829;51.350;17.286;2023-03-30T16:22:14;27.80;36.10
38020;DHT22;23829;51.350;17.286;2023-03-30T16:24:42;27.80;36.20
38020;DHT22;23829;51.350;17.286;2023-03-30T16:27:11;27.70;35.90
38020;DHT22;23829;51.350;17.286;2023-03-30T16:29:38;27.80;36.10
38020;DHT22;23829;51.350;17.286;2023-03-30T16:32:04;27.80;35.90
38020;DHT22;23829;51.350;17.286;2023-03-30T16:34:31;27.90;36.00
38020;DHT22;23829;51.350;17.286;2023-03-30T16:36:57;27.80;35.90
38020;DHT22;23829;51.350;17.286;2023-03-30T16:39:26;27.70;36.10
38020;DHT22;23829;51.350;17.286;2023-03-30T16:41:53;27.40;36.80
38020;DHT22;23829;51.350;17.286;2023-03-30T16:44:22;27.40;36.80
38020;DHT22;23829;51.350;17.286;2023-03-30T16:46:49;27.50;36.70
38020;DHT22;23829;51.350;17.286;2023-03-30T16:49:22;27.30;36.80
38020;DHT22;23829;51.350;17.286;2023-03-30T16:51:50;27.60;36.90
38020;DHT22;23829;51.350;17.286;2023-03-30T16:54:18;27.90;36.30
38020;DHT22;23829;51.350;17.286;2023-03-30T16:56:45;27.80;36.50
38020;DHT22;23829;51.350;17.286;2023-03-30T16:59:22;27.80;36.40
38020;DHT22;23829;51.350;17.286;2023-03-30T17:01:49;28.20;36.00
38020;DHT22;23829;51.350;17.286;2023-03-30T17:04:17;28.00;36.10
38020;DHT22;23829;51.350;17.286;2023-03-30T17:06:44;27.70;36.40
38020;DHT22;23829;51.350;17.286;2023-03-30T17:09:17;27.40;37.00
38020;DHT22;23829;51.350;17.286;2023-03-30T17:11:45;27.40;37.00
38020;DHT22;23829;51.350;17.286;2023-03-30T17:14:13;27.40;37.20
38020;DHT22;23829;51.350;17.286;2023-03-30T17:16:39;27.20;37.40
38020;DHT22;23829;51.350;17.286;2023-03-30T17:19:10;27.30;37.40
38020;DHT22;23829;51.350;17.286;2023-03-30T17:21:37;27.40;37.20
38020;DHT22;23829;51.350;17.286;2023-03-30T17:24:05;27.20;37.30
38020;DHT22;23829;51.350;17.286;2023-03-30T17:26:31;27.20;37.30
38020;DHT22;23829;51.350;17.286;2023-03-30T17:28:58;27.00;37.80
38020;DHT22;23829;51.350;17.286;2023-03-30T17:31:24;26.80;37.80
38020;DHT22;23829;51.350;17.286;2023-03-30T17:33:51;26.60;38.40
38020;DHT22;23829;51.350;17.286;2023-03-30T17:36:19;26.60;38.30
38020;DHT22;23829;51.350;17.286;2023-03-30T17:38:47;26.50;38.40
38020;DHT22;23829;51.350;17.286;2023-03-30T17:41:15;26.20;39.20
38020;DHT22;23829;51.350;17.286;2023-03-30T17:43:42;25.90;39.50
38020;DHT22;23829;51.350;17.286;2023-03-30T17:46:11;26.10;39.10
38020;DHT22;23829;51.350;17.286;2023-03-30T17:48:38;26.40;39.00
38020;DHT22;23829;51.350;17.286;2023-03-30T17:51:05;26.60;38.30
38020;DHT22;23829;51.350;17.286;2023-03-30T17:53:32;26.40;38.40
38020;DHT22;23829;51.350;17.286;2023-03-30T17:55:58;26.40;38.50
38020;DHT22;23829;51.350;17.286;2023-03-30T18:00:58;26.80;38.00
38020;DHT22;23829;51.350;17.286;2023-03-30T18:03:24;26.80;37.80
38020;DHT22;23829;51.350;17.286;2023-03-30T18:05:51;26.80;38.30
38020;DHT22;23829;51.350;17.286;2023-03-30T18:08:20;26.80;37.70
38020;DHT22;23829;51.350;17.286;2023-03-30T18:10:51;26.70;37.80
38020;DHT22;23829;51.350;17.286;2023-03-30T18:13:19;26.70;38.10
38020;DHT22;23829;51.350;17.286;2023-03-30T18:15:47;26.90;38.10
38020;DHT22;23829;51.350;17.286;2023-03-30T18:18:16;26.50;37.90
38020;DHT22;23829;51.350;17.286;2023-03-30T18:20:48;26.50;38.10
38020;DHT22;23829;51.350;17.286;2023-03-30T18:23:16;26.60;38.30
38020;DHT22;23829;51.350;17.286;2023-03-30T18:25:43;26.90;37.80
38020;DHT22;23829;51.350;17.286;2023-03-30T18:28:18;26.70;37.80
38020;DHT22;23829;51.350;17.286;2023-03-30T18:30:47;26.90;37.60
38020;DHT22;23829;51.350;17.286;2023-03-30T18:33:15;26.90;37.50
38020;DHT22;23829;51.350;17.286;2023-03-30T18:35:42;26.90;37.50
38020;DHT22;23829;51.350;17.286;2023-03-30T18:38:12;27.10;37.20
38020;DHT22;23829;51.350;17.286;2023-03-30T18:40:42;26.90;37.30
38020;DHT22;23829;51.350;17.286;2023-03-30T18:43:12;26.90;37.30
38020;DHT22;23829;51.350;17.286;2023-03-30T18:45:41;27.20;36.90
38020;DHT22;23829;51.350;17.286;2023-03-30T18:48:13;27.00;36.90
38020;DHT22;23829;51.350;17.286;2023-03-30T18:50:44;27.00;37.30
38020;DHT22;23829;51.350;17.286;2023-03-30T18:53:15;27.30;37.10
38020;DHT22;23829;51.350;17.286;2023-03-30T18:55:45;27.20;36.90
38020;DHT22;23829;51.350;17.286;2023-03-30T18:58:15;27.20;36.80
38020;DHT22;23829;51.350;17.286;2023-03-30T19:00:44;26.90;37.50
38020;DHT22;23829;51.350;17.286;2023-03-30T19:03:12;26.70;37.90
38020;DHT22;23829;51.350;17.286;2023-03-30T19:05:41;26.80;37.90
38020;DHT22;23829;51.350;17.286;2023-03-30T19:08:17;27.00;37.60
38020;DHT22;23829;51.350;17.286;2023-03-30T19:10:45;26.70;38.10
38020;DHT22;23829;51.350;17.286;2023-03-30T19:13:14;26.80;37.80
38020;DHT22;23829;51.350;17.286;2023-03-30T19:15:43;26.80;37.80
38020;DHT22;23829;51.350;17.286;2023-03-30T19:18:10;26.70;38.30
38020;DHT22;23829;51.350;17.286;2023-03-30T19:20:39;26.60;38.10
38020;DHT22;23829;51.350;17.286;2023-03-30T19:23:12;26.80;37.70
38020;DHT22;23829;51.350;17.286;2023-03-30T19:25:41;26.80;37.70